Time;durP1;ratioP1;P1;durP2;ratioP2;P2;SDS_P1;SDS_P2;PMS_P1;PMS_P2;Temp;Humidity;BMP_temperature;BMP_pressure;BME280_temperature;BME280_humidity;BME280_pressure;Samples;Min_cycle;Max_cycle;Signal;HPM_P1;HPM_P2
2023/04/13 00:00:09;;;;;;;0.10;0.10;;;;;;;14.03;57.03;99478.25;5050690;28;20021;-68
2023/04/13 00:02:38;;;;;;;0.20;0.20;;;;;;;13.58;58.46;99475.81;5050676;28;20060;-68
2023/04/13 00:05:06;;;;;;;0.30;0.30;;;;;;;13.87;57.16;99474.84;5050990;28;20086;-69
2023/04/13 00:07:32;;;;;;;0.20;0.20;;;;;;;14.10;56.70;99467.91;5051699;28;20028;-68
2023/04/13 00:10:01;;;;;;;0.20;0.20;;;;;;;14.05;56.83;99466.06;5050126;28;20068;-69
2023/04/13 00:12:26;;;;;;;0.20;0.20;;;;;;;14.39;56.25;99455.28;5050229;28;20025;-67
2023/04/13 00:14:52;;;;;;;0.20;0.20;;;;;;;13.94;57.03;99459.13;5032629;28;20048;-67
2023/04/13 00:17:17;;;;;;;0.10;0.10;;;;;;;14.34;56.28;99459.94;5033815;28;20029;-68
2023/04/13 00:19:46;;;;;;;0.20;0.20;;;;;;;14.45;55.57;99453.34;5030498;28;20155;-69
2023/04/13 00:22:12;;;;;;;0.10;0.10;;;;;;;14.00;56.53;99446.38;5047185;28;20559;-70
2023/04/13 00:24:38;;;;;;;0.10;0.10;;;;;;;13.95;57.11;99457.22;5050374;28;20127;-68
2023/04/13 00:27:03;;;;;;;0.20;0.20;;;;;;;13.69;58.28;99455.78;5045820;28;20401;-70
2023/04/13 00:29:29;;;;;;;0.17;0.17;;;;;;;13.55;58.09;99441.28;5044448;28;20566;-68
2023/04/13 00:31:55;;;;;;;0.10;0.10;;;;;;;13.78;58.76;99446.78;5050094;28;20051;-67
2023/04/13 00:34:21;;;;;;;0.20;0.20;;;;;;;13.56;58.30;99449.09;5029061;28;20543;-68
2023/04/13 00:36:47;;;;;;;0.22;0.22;;;;;;;14.20;57.36;99432.72;5030135;28;20171;-68
2023/04/13 00:39:14;;;;;;;0.22;0.22;;;;;;;14.08;57.08;99443.91;5030012;28;20033;-68
2023/04/13 00:41:40;;;;;;;0.10;0.10;;;;;;;13.78;58.18;99440.59;5029815;28;20029;-68
2023/04/13 00:44:07;;;;;;;0.20;0.20;;;;;;;13.64;59.37;99443.09;5030063;28;20073;-68
2023/04/13 00:46:33;;;;;;;0.30;0.30;;;;;;;14.07;57.80;99427.97;5061778;28;20024;-68
2023/04/13 00:49:00;;;;;;;0.10;0.10;;;;;;;14.32;56.92;99424.28;5069829;28;20036;-68
2023/04/13 00:51:26;;;;;;;0.13;0.13;;;;;;;14.10;57.46;99422.00;5056685;28;20037;-68
2023/04/13 00:53:52;;;;;;;0.20;0.20;;;;;;;14.16;57.12;99415.47;5048053;28;20296;-68
2023/04/13 00:56:18;;;;;;;0.20;0.20;;;;;;;14.03;57.23;99414.22;5049752;28;20402;-68
2023/04/13 00:58:44;;;;;;;0.20;0.20;;;;;;;14.26;56.39;99409.97;5050083;28;20025;-67
2023/04/13 01:01:09;;;;;;;0.20;0.20;;;;;;;13.69;58.46;99410.69;5049966;28;20511;-68
2023/04/13 01:03:35;;;;;;;0.10;0.10;;;;;;;13.48;59.79;99406.50;5049853;28;20127;-68
2023/04/13 01:06:13;;;;;;;0.10;0.10;;;;;;;13.63;59.27;99405.59;5049600;28;20094;-67
2023/04/13 01:08:50;;;;;;;0.30;0.30;;;;;;;14.13;57.21;99395.22;5049626;28;20270;-68
2023/04/13 01:11:29;;;;;;;0.15;0.15;;;;;;;13.67;59.45;99402.06;5049760;28;20052;-67
2023/04/13 01:14:08;;;;;;;0.20;0.20;;;;;;;13.81;58.74;99408.44;5049555;28;20033;-68
2023/04/13 01:16:41;;;;;;;0.10;0.10;;;;;;;13.12;60.66;99402.38;5050312;28;20025;-67
2023/04/13 01:19:14;;;;;;;0.10;0.10;;;;;;;13.63;59.82;99398.31;5049253;28;20033;-69
2023/04/13 01:21:41;;;;;;;0.20;0.20;;;;;;;13.42;60.11;99401.41;5034747;28;20033;-68
2023/04/13 01:24:39;;;;;;;0.30;0.30;;;;;;;13.86;58.39;99394.09;5048400;28;20045;-67
2023/04/13 01:27:19;;;;;;;0.20;0.20;;;;;;;14.77;56.07;99391.38;5049403;28;20072;-68
2023/04/13 01:29:45;;;;;;;0.20;0.20;;;;;;;13.48;59.07;99408.41;5030255;28;20046;-68
2023/04/13 01:32:13;;;;;;;0.20;0.20;;;;;;;13.20;60.38;99396.41;5051505;28;20033;-68
2023/04/13 01:34:39;;;;;;;0.20;0.20;;;;;;;13.86;58.18;99391.38;5044709;28;20051;-69
2023/04/13 01:37:05;;;;;;;0.30;0.30;;;;;;;13.67;59.65;99385.88;5033115;28;20112;-68
2023/04/13 01:39:32;;;;;;;0.10;0.10;;;;;;;12.89;61.76;99392.19;5032939;28;20041;-69
2023/04/13 01:41:58;;;;;;;0.30;0.30;;;;;;;13.22;62.04;99391.53;5043227;28;20053;-68
2023/04/13 01:44:26;;;;;;;0.20;0.20;;;;;;;13.71;59.42;99380.72;5052830;28;20484;-68
2023/04/13 01:46:57;;;;;;;0.20;0.20;;;;;;;14.23;58.07;99391.63;5069345;28;20109;-68
2023/04/13 01:49:22;;;;;;;0.20;0.20;;;;;;;13.23;60.54;99387.75;5073250;28;20576;-69
2023/04/13 01:51:50;;;;;;;0.10;0.10;;;;;;;13.86;59.32;99391.38;5058944;28;20120;-68
2023/04/13 01:54:19;;;;;;;0.20;0.20;;;;;;;14.09;58.15;99399.56;5034738;28;20036;-69
2023/04/13 01:56:45;;;;;;;0.10;0.10;;;;;;;14.07;58.45;99388.25;5052951;28;20036;-70
2023/04/13 01:59:11;;;;;;;0.20;0.20;;;;;;;13.95;59.90;99395.13;5052794;28;20040;-70
2023/04/13 02:01:38;;;;;;;0.10;0.10;;;;;;;13.63;60.46;99402.91;5053158;28;20492;-69
2023/04/13 02:04:04;;;;;;;0.10;0.10;;;;;;;13.95;59.92;99408.63;5053135;28;20095;-69
2023/04/13 02:06:29;;;;;;;0.15;0.15;;;;;;;13.70;60.30;99403.41;5052779;28;20136;-69
2023/04/13 02:08:54;;;;;;;0.30;0.30;;;;;;;13.45;61.46;99407.06;5052669;28;20513;-68
2023/04/13 02:11:20;;;;;;;0.10;0.10;;;;;;;13.38;61.47;99405.75;5052503;28;20501;-69
2023/04/13 02:13:46;;;;;;;0.10;0.10;;;;;;;13.62;60.97;99407.47;5052527;28;20373;-70
2023/04/13 02:16:11;;;;;;;0.17;0.17;;;;;;;13.98;60.31;99406.16;5052466;28;20028;-70
2023/04/13 02:18:37;;;;;;;0.13;0.13;;;;;;;13.21;61.70;99392.59;5052404;28;20037;-69
2023/04/13 02:21:08;;;;;;;0.13;0.13;;;;;;;13.59;60.46;99399.97;5051891;28;20115;-69
2023/04/13 02:23:39;;;;;;;0.30;0.30;;;;;;;13.69;60.25;99399.06;5052182;28;20285;-68
2023/04/13 02:26:07;;;;;;;0.10;0.10;;;;;;;13.79;60.07;99391.72;5052065;28;20068;-69
2023/04/13 02:28:33;;;;;;;0.20;0.20;;;;;;;13.72;61.16;99393.13;5052366;28;20037;-68
2023/04/13 02:30:58;;;;;;;0.10;0.10;;;;;;;14.16;58.92;99401.16;5052035;28;20037;-70
2023/04/13 02:33:29;;;;;;;0.10;0.10;;;;;;;13.97;59.03;99392.94;5052015;28;20048;-70
2023/04/13 02:35:54;;;;;;;0.20;0.20;;;;;;;14.37;58.07;99403.41;5052002;28;20611;-70
2023/04/13 02:38:20;;;;;;;0.20;0.20;;;;;;;13.61;60.04;99403.19;5051621;28;20434;-68
2023/04/13 02:40:45;;;;;;;0.10;0.10;;;;;;;14.53;56.89;99394.06;5051828;28;20097;-70
2023/04/13 02:43:11;;;;;;;0.30;0.30;;;;;;;14.13;58.24;99397.13;5052002;28;20052;-71
2023/04/13 02:45:38;;;;;;;0.10;0.10;;;;;;;14.41;58.86;99403.63;5057750;28;20028;-68
2023/04/13 02:48:04;;;;;;;0.10;0.10;;;;;;;14.47;58.06;99402.50;5072387;28;20454;-69
2023/04/13 02:50:29;;;;;;;0.20;0.20;;;;;;;14.47;58.08;99406.00;5068934;28;20129;-67
2023/04/13 02:52:55;;;;;;;0.25;0.25;;;;;;;13.95;59.24;99412.09;5052292;28;20033;-69
2023/04/13 02:55:20;;;;;;;0.20;0.20;;;;;;;13.67;61.17;99420.97;5052473;28;20516;-69
2023/04/13 02:57:45;;;;;;;0.10;0.10;;;;;;;12.94;63.68;99419.94;5051371;28;20068;-68
2023/04/13 03:00:12;;;;;;;0.15;0.15;;;;;;;12.66;64.98;99427.84;5033537;28;20033;-70
2023/04/13 03:02:37;;;;;;;0.10;0.10;;;;;;;13.01;64.12;99428.53;5049215;28;20043;-70
2023/04/13 03:05:05;;;;;;;0.20;0.20;;;;;;;12.94;64.60;99433.41;5051967;28;20044;-68
2023/04/13 03:07:31;;;;;;;0.20;0.20;;;;;;;13.23;63.49;99433.59;5051864;28;20108;-73
2023/04/13 03:10:00;;;;;;;0.20;0.20;;;;;;;12.71;66.14;99436.72;5051297;28;20037;-69
2023/04/13 03:12:25;;;;;;;0.10;0.10;;;;;;;13.42;63.53;99437.31;5051577;28;20041;-68
2023/04/13 03:14:50;;;;;;;0.20;0.20;;;;;;;12.87;64.61;99440.19;5051211;28;20036;-69
2023/04/13 03:17:16;;;;;;;0.20;0.20;;;;;;;13.07;64.71;99451.72;5050885;28;20060;-71
2023/04/13 03:19:45;;;;;;;0.20;0.20;;;;;;;12.88;65.20;99458.78;5051293;28;20112;-69
2023/04/13 03:22:11;;;;;;;0.20;0.20;;;;;;;13.32;64.39;99450.03;5032912;28;20040;-72
2023/04/13 03:24:37;;;;;;;0.10;0.10;;;;;;;13.31;63.21;99454.59;5017873;28;20045;-69
2023/04/13 03:27:03;;;;;;;0.22;0.22;;;;;;;12.40;65.81;99464.81;5031185;28;20037;-71
2023/04/13 03:29:28;;;;;;;0.20;0.20;;;;;;;13.32;63.21;99471.63;5030762;28;20536;-68
2023/04/13 03:31:53;;;;;;;0.10;0.10;;;;;;;12.97;64.27;99472.53;5029168;28;20148;-69
2023/04/13 03:34:19;;;;;;;0.10;0.10;;;;;;;12.59;65.53;99473.94;5031351;28;20474;-69
2023/04/13 03:36:45;;;;;;;0.28;0.28;;;;;;;12.90;64.59;99478.19;5047410;28;20408;-68
2023/04/13 03:39:11;;;;;;;0.10;0.10;;;;;;;13.00;64.66;99483.56;5033145;28;20060;-71
2023/04/13 03:41:36;;;;;;;0.25;0.25;;;;;;;13.07;64.40;99481.41;5050850;28;20076;-70
2023/04/13 03:44:03;;;;;;;0.28;0.28;;;;;;;12.79;65.29;99484.69;5050744;28;20032;-69
2023/04/13 03:46:30;;;;;;;0.20;0.20;;;;;;;12.63;64.41;99488.50;5064579;28;20031;-70
2023/04/13 03:48:56;;;;;;;0.17;0.17;;;;;;;13.00;63.17;99494.34;5070555;28;20036;-68
2023/04/13 03:51:21;;;;;;;0.20;0.20;;;;;;;12.12;67.10;99492.25;5060536;28;20102;-70
2023/04/13 03:53:47;;;;;;;0.10;0.10;;;;;;;12.90;64.10;99502.47;5050748;28;20037;-68
2023/04/13 03:56:12;;;;;;;0.13;0.13;;;;;;;12.32;65.31;99509.22;5046550;28;20093;-68
2023/04/13 03:58:38;;;;;;;0.10;0.10;;;;;;;12.48;65.15;99501.94;5030812;28;20037;-67
2023/04/13 04:01:03;;;;;;;0.10;0.10;;;;;;;12.11;65.75;99518.38;5028827;28;20056;-68
2023/04/13 04:03:29;;;;;;;0.10;0.10;;;;;;;12.67;64.41;99513.81;5010258;28;20061;-68
2023/04/13 04:05:54;;;;;;;0.20;0.20;;;;;;;12.75;64.39;99513.28;5050385;28;20052;-69
2023/04/13 04:08:20;;;;;;;0.17;0.17;;;;;;;12.85;63.56;99515.97;5050147;28;20036;-69
2023/04/13 04:10:45;;;;;;;0.20;0.20;;;;;;;12.44;64.74;99519.75;5050355;28;20028;-68
2023/04/13 04:13:11;;;;;;;0.20;0.20;;;;;;;12.26;65.72;99522.97;5049966;28;20025;-69
2023/04/13 04:15:36;;;;;;;0.10;0.10;;;;;;;12.64;64.44;99530.50;5050167;28;20056;-69
2023/04/13 04:18:02;;;;;;;0.15;0.15;;;;;;;12.20;65.58;99532.94;5032432;28;20120;-68
2023/04/13 04:20:27;;;;;;;0.30;0.30;;;;;;;12.34;64.71;99535.91;5049657;28;20059;-70
2023/04/13 04:22:52;;;;;;;0.20;0.20;;;;;;;12.65;64.81;99536.72;5029807;28;20073;-69
2023/04/13 04:25:21;;;;;;;0.13;0.13;;;;;;;12.71;63.67;99539.16;5051196;28;20036;-68
2023/04/13 04:27:56;;;;;;;0.20;0.20;;;;;;;12.82;63.72;99538.06;5049873;28;20042;-68
2023/04/13 04:30:23;;;;;;;0.10;0.10;;;;;;;12.21;66.45;99541.81;5049979;28;20064;-68
2023/04/13 04:32:51;;;;;;;0.17;0.17;;;;;;;12.52;64.19;99553.44;5049984;28;20086;-69
2023/04/13 04:35:19;;;;;;;0.22;0.22;;;;;;;12.80;63.80;99548.31;5047781;28;20079;-70
2023/04/13 04:37:48;;;;;;;0.20;0.20;;;;;;;13.02;62.49;99548.81;5050137;28;20075;-69
2023/04/13 04:40:15;;;;;;;0.17;0.17;;;;;;;12.98;62.42;99555.84;5050349;28;20028;-69
2023/04/13 04:42:41;;;;;;;0.20;0.20;;;;;;;12.96;62.77;99560.69;5032301;28;20501;-70
2023/04/13 04:45:07;;;;;;;0.17;0.17;;;;;;;13.50;60.57;99568.97;5049875;28;20037;-69
2023/04/13 04:47:40;;;;;;;0.20;0.20;;;;;;;13.06;61.43;99562.59;5049991;28;20041;-69
2023/04/13 04:50:09;;;;;;;0.15;0.15;;;;;;;13.38;60.57;99567.66;5049487;28;20040;-71
2023/04/13 04:52:35;;;;;;;0.17;0.17;;;;;;;13.06;61.86;99579.59;5030676;28;20030;-68
2023/04/13 04:55:01;;;;;;;0.20;0.20;;;;;;;13.28;62.07;99578.47;5030100;28;20123;-70
2023/04/13 04:57:26;;;;;;;0.10;0.10;;;;;;;13.31;60.02;99580.59;5030148;28;20041;-69
2023/04/13 04:59:51;;;;;;;0.25;0.25;;;;;;;13.31;62.36;99591.38;5029770;28;20060;-71
2023/04/13 05:02:17;;;;;;;0.30;0.30;;;;;;;13.58;60.28;99589.19;5027332;28;20137;-68
2023/04/13 05:04:42;;;;;;;0.10;0.10;;;;;;;13.52;60.96;99588.38;5033054;28;20043;-71
2023/04/13 05:07:08;;;;;;;0.17;0.17;;;;;;;13.53;60.79;99594.59;5051077;28;20408;-70
2023/04/13 05:09:33;;;;;;;0.22;0.22;;;;;;;12.99;64.45;99599.78;5052987;28;20515;-70
2023/04/13 05:11:59;;;;;;;0.10;0.10;;;;;;;11.95;65.16;99604.78;5053158;28;20120;-69
2023/04/13 05:14:24;;;;;;;0.20;0.20;;;;;;;12.16;64.75;99604.56;5052820;28;20033;-70
2023/04/13 05:16:50;;;;;;;0.30;0.30;;;;;;;12.76;64.05;99601.13;5053170;28;20468;-70
2023/04/13 05:19:15;;;;;;;0.20;0.20;;;;;;;12.28;65.50;99615.09;5053847;28;20388;-70
2023/04/13 05:21:41;;;;;;;0.20;0.20;;;;;;;12.24;66.17;99608.63;5053560;28;20036;-68
2023/04/13 05:24:06;;;;;;;0.20;0.20;;;;;;;12.48;65.11;99614.31;5053777;28;20128;-70
2023/04/13 05:26:33;;;;;;;0.20;0.20;;;;;;;12.18;64.96;99618.59;5054388;28;20507;-69
2023/04/13 05:28:58;;;;;;;0.20;0.20;;;;;;;12.65;64.23;99623.78;5038021;28;20033;-71
2023/04/13 05:31:24;;;;;;;0.20;0.20;;;;;;;12.27;66.14;99629.63;5050623;28;20122;-70
2023/04/13 05:33:49;;;;;;;0.20;0.20;;;;;;;12.82;64.12;99627.00;5043130;28;20336;-68
2023/04/13 05:36:15;;;;;;;0.20;0.20;;;;;;;12.99;63.77;99629.47;5053492;28;20138;-69
2023/04/13 05:38:41;;;;;;;0.20;0.20;;;;;;;12.89;63.86;99632.94;5050057;28;20194;-69
2023/04/13 05:41:07;;;;;;;0.38;0.38;;;;;;;13.16;62.92;99641.63;5052663;28;20090;-68
2023/04/13 05:43:33;;;;;;;0.20;0.20;;;;;;;12.91;63.58;99640.78;5046330;28;20040;-69
2023/04/13 05:45:59;;;;;;;0.40;0.40;;;;;;;13.29;63.75;99637.53;5038878;28;20037;-70
2023/04/13 05:48:25;;;;;;;0.30;0.30;;;;;;;12.71;65.63;99655.06;5052057;28;20544;-68
2023/04/13 05:50:55;;;;;;;0.20;0.20;;;;;;;12.78;64.28;99652.06;5047441;28;20114;-69
2023/04/13 05:53:20;;;;;;;0.20;0.20;;;;;;;12.88;64.95;99657.47;5038167;28;20096;-69
2023/04/13 05:55:45;;;;;;;0.20;0.20;;;;;;;13.12;63.66;99667.50;5045273;28;20121;-69
2023/04/13 05:58:11;;;;;;;0.10;0.10;;;;;;;12.53;65.69;99669.03;5037180;28;20052;-68
2023/04/13 06:00:37;;;;;;;0.30;0.30;;;;;;;14.07;60.51;99666.47;5044324;28;20550;-69
2023/04/13 06:03:03;;;;;;;0.30;0.30;;;;;;;13.42;62.12;99672.06;5040189;28;20064;-68
2023/04/13 06:05:30;;;;;;;0.20;0.20;;;;;;;13.28;62.51;99675.59;5030834;28;20037;-69
2023/04/13 06:07:56;;;;;;;0.20;0.20;;;;;;;13.36;62.63;99681.25;5037649;28;20028;-69
2023/04/13 06:10:21;;;;;;;0.20;0.20;;;;;;;13.40;62.66;99685.03;5032561;28;20025;-68
2023/04/13 06:12:47;;;;;;;0.30;0.30;;;;;;;13.36;62.01;99689.34;5033976;28;20429;-69
2023/04/13 06:15:13;;;;;;;0.10;0.10;;;;;;;13.33;63.11;99686.34;5061896;28;20068;-70
2023/04/13 06:17:39;;;;;;;0.30;0.30;;;;;;;12.76;64.89;99700.06;5040971;28;20519;-70
2023/04/13 06:20:06;;;;;;;0.20;0.20;;;;;;;13.14;62.17;99702.31;5049979;28;20116;-69
2023/04/13 06:22:32;;;;;;;0.20;0.20;;;;;;;12.63;64.50;99708.66;5047120;28;20053;-71
2023/04/13 06:24:57;;;;;;;0.30;0.30;;;;;;;13.21;62.17;99708.22;5049096;28;20120;-69
2023/04/13 06:27:23;;;;;;;0.20;0.20;;;;;;;13.65;60.46;99717.38;5052278;28;20094;-69
2023/04/13 06:29:49;;;;;;;0.13;0.13;;;;;;;13.97;59.89;99711.63;5046202;28;20579;-68
2023/04/13 06:32:14;;;;;;;0.20;0.20;;;;;;;14.60;58.20;99718.97;5050883;28;20044;-68
2023/04/13 06:34:40;;;;;;;0.20;0.20;;;;;;;14.26;59.94;99725.31;5051347;28;20032;-67
2023/04/13 06:37:05;;;;;;;0.20;0.20;;;;;;;13.96;60.14;99735.13;5051604;28;20445;-70
2023/04/13 06:39:31;;;;;;;0.22;0.22;;;;;;;14.25;59.80;99734.50;5051637;28;20037;-68
2023/04/13 06:41:56;;;;;;;0.30;0.30;;;;;;;13.75;61.49;99738.16;5051765;28;20044;-69
2023/04/13 06:44:23;;;;;;;0.30;0.30;;;;;;;13.79;60.94;99741.94;5051460;28;20116;-69
2023/04/13 06:46:48;;;;;;;0.20;0.20;;;;;;;13.99;60.42;99741.88;5053709;28;20040;-69
2023/04/13 06:49:13;;;;;;;0.20;0.20;;;;;;;14.35;59.83;99748.81;5072106;28;20056;-70
2023/04/13 06:51:39;;;;;;;0.30;0.30;;;;;;;14.34;59.18;99744.50;5058521;28;20425;-69
2023/04/13 06:54:04;;;;;;;0.20;0.20;;;;;;;13.97;59.88;99758.34;5051768;28;20132;-70
2023/04/13 06:56:30;;;;;;;0.20;0.20;;;;;;;14.05;59.18;99746.19;5051535;28;20404;-69
2023/04/13 06:59:00;;;;;;;0.20;0.20;;;;;;;13.52;60.77;99763.00;5051242;28;20025;-70
2023/04/13 07:01:28;;;;;;;0.20;0.20;;;;;;;14.43;57.48;99756.34;5045793;28;20020;-70
2023/04/13 07:03:53;;;;;;;0.40;0.40;;;;;;;13.92;59.60;99774.56;5051753;28;20029;-69
2023/04/13 07:06:20;;;;;;;0.22;0.22;;;;;;;14.38;58.41;99767.19;5051428;28;20571;-68
2023/04/13 07:08:45;;;;;;;0.10;0.10;;;;;;;13.59;61.58;99769.75;5051202;28;20366;-68
2023/04/13 07:11:12;;;;;;;0.40;0.40;;;;;;;13.95;60.33;99781.34;5051881;28;20037;-69
2023/04/13 07:13:37;;;;;;;0.22;0.22;;;;;;;14.19;59.34;99766.13;5052446;28;20120;-71
2023/04/13 07:16:03;;;;;;;0.30;0.30;;;;;;;13.62;60.14;99788.09;5051807;28;20124;-70
2023/04/13 07:18:29;;;;;;;0.22;0.22;;;;;;;14.34;58.80;99781.53;5051726;28;20043;-67
2023/04/13 07:20:55;;;;;;;0.40;0.40;;;;;;;14.59;57.24;99778.72;5050850;28;20029;-70
2023/04/13 07:23:21;;;;;;;0.30;0.30;;;;;;;14.91;58.09;99777.22;5050988;28;20051;-69
2023/04/13 07:25:47;;;;;;;0.20;0.20;;;;;;;14.49;58.78;99789.56;5051189;28;20112;-67
2023/04/13 07:28:12;;;;;;;0.30;0.30;;;;;;;14.60;58.15;99793.88;5051301;28;20028;-69
2023/04/13 07:30:42;;;;;;;0.20;0.20;;;;;;;14.31;60.13;99787.50;5050253;28;20124;-68
2023/04/13 07:33:07;;;;;;;0.10;0.10;;;;;;;15.50;55.55;99803.38;5050927;28;20064;-68
2023/04/13 07:35:35;;;;;;;0.20;0.20;;;;;;;15.84;55.21;99799.56;5050500;28;20136;-67
2023/04/13 07:38:00;;;;;;;0.30;0.30;;;;;;;15.41;55.14;99802.34;5050724;28;20272;-68
2023/04/13 07:40:26;;;;;;;0.20;0.20;;;;;;;15.44;56.57;99810.75;5051112;28;20070;-68
2023/04/13 07:42:51;;;;;;;0.28;0.28;;;;;;;16.10;54.29;99805.53;5050703;28;20068;-68
2023/04/13 07:45:18;;;;;;;0.20;0.20;;;;;;;16.36;54.15;99803.38;5032584;28;20129;-70
2023/04/13 07:47:44;;;;;;;0.13;0.13;;;;;;;15.56;56.05;99807.66;5067653;28;20086;-70
2023/04/13 07:50:09;;;;;;;0.22;0.22;;;;;;;16.11;55.97;99815.31;5070027;28;20036;-68
2023/04/13 07:52:35;;;;;;;0.20;0.20;;;;;;;16.02;55.18;99817.00;5050878;28;20032;-68
2023/04/13 07:55:01;;;;;;;0.20;0.20;;;;;;;15.51;56.69;99821.22;5050648;28;20032;-70
2023/04/13 07:57:27;;;;;;;0.20;0.20;;;;;;;15.60;56.32;99814.94;5024600;28;20501;-68
2023/04/13 07:59:52;;;;;;;0.20;0.20;;;;;;;15.48;56.90;99827.22;5048163;28;20037;-71
2023/04/13 08:02:19;;;;;;;0.10;0.10;;;;;;;15.79;56.19;99829.41;5050426;28;20039;-69
2023/04/13 08:04:44;;;;;;;0.30;0.30;;;;;;;14.73;59.81;99831.13;5051346;28;20051;-68
2023/04/13 08:07:10;;;;;;;0.30;0.30;;;;;;;15.24;59.38;99837.91;5050491;28;20048;-69
2023/04/13 08:09:39;;;;;;;0.20;0.20;;;;;;;14.34;62.46;99846.38;5049944;28;20033;-68
2023/04/13 08:12:05;;;;;;;0.20;0.20;;;;;;;14.39;60.84;99849.06;5050199;28;20029;-70
2023/04/13 08:14:30;;;;;;;0.35;0.35;;;;;;;15.21;58.99;99857.41;5050009;28;20037;-68
2023/04/13 08:16:56;;;;;;;0.10;0.10;;;;;;;13.75;64.65;99863.16;5031672;28;20043;-68
2023/04/13 08:19:22;;;;;;;0.20;0.20;;;;;;;13.62;64.58;99863.69;5050544;28;20043;-69
2023/04/13 08:21:47;;;;;;;0.32;0.32;;;;;;;14.17;64.45;99862.06;5049977;28;20041;-69
2023/04/13 08:24:13;;;;;;;0.35;0.35;;;;;;;14.01;64.90;99870.16;5050252;28;20613;-70
2023/04/13 08:26:38;;;;;;;0.30;0.30;;;;;;;14.46;63.53;99880.16;5050250;28;20033;-68
2023/04/13 08:29:04;;;;;;;0.17;0.17;;;;;;;13.48;66.64;99876.09;5050498;28;20041;-69
2023/04/13 08:31:31;;;;;;;0.30;0.30;;;;;;;13.98;64.96;99880.72;5050246;28;20035;-70
2023/04/13 08:33:56;;;;;;;0.30;0.30;;;;;;;13.98;65.22;99884.22;5049709;28;20025;-69
2023/04/13 08:36:22;;;;;;;0.20;0.20;;;;;;;14.31;64.85;99888.28;5049994;28;20461;-68
2023/04/13 08:38:47;;;;;;;0.25;0.25;;;;;;;15.31;62.65;99889.03;5050066;28;20310;-68
2023/04/13 08:41:13;;;;;;;0.20;0.20;;;;;;;14.48;63.36;99886.09;5050902;28;20520;-69
2023/04/13 08:43:39;;;;;;;0.20;0.20;;;;;;;14.33;64.83;99886.13;5054765;28;20075;-68
2023/04/13 08:46:05;;;;;;;0.28;0.28;;;;;;;14.56;65.24;99899.06;5056655;28;20029;-70
2023/04/13 08:48:38;;;;;;;0.22;0.22;;;;;;;14.19;65.68;99900.44;5073916;28;20032;-69
2023/04/13 08:51:04;;;;;;;0.20;0.20;;;;;;;13.74;67.15;99914.72;5066203;28;20047;-72
2023/04/13 08:53:29;;;;;;;0.20;0.20;;;;;;;13.85;65.98;99911.78;5028393;28;20042;-68
2023/04/13 08:55:57;;;;;;;0.30;0.30;;;;;;;14.08;65.50;99911.25;5051867;28;20032;-69
2023/04/13 08:58:24;;;;;;;0.30;0.30;;;;;;;14.51;65.01;99911.75;5054048;28;20039;-68
2023/04/13 09:00:50;;;;;;;0.20;0.20;;;;;;;14.27;64.04;99911.50;5053492;28;20036;-70
2023/04/13 09:03:22;;;;;;;0.30;0.30;;;;;;;14.82;64.63;99918.72;5053406;28;20037;-69
2023/04/13 09:06:03;;;;;;;0.30;0.30;;;;;;;14.76;65.00;99923.34;5053611;28;20044;-70
2023/04/13 09:08:35;;;;;;;0.30;0.30;;;;;;;14.42;64.36;99926.94;5037300;28;20120;-69
2023/04/13 09:11:02;;;;;;;0.40;0.40;;;;;;;13.36;67.61;99950.28;5035696;28;20021;-69
2023/04/13 09:13:28;;;;;;;0.10;0.10;;;;;;;12.84;68.95;99975.34;5054327;28;20041;-68
2023/04/13 09:15:54;;;;;;;0.25;0.25;;;;;;;13.73;66.99;99951.72;5053418;28;20040;-70
2023/04/13 09:18:19;;;;;;;0.28;0.28;;;;;;;13.70;67.45;99967.66;5053243;28;20037;-68
2023/04/13 09:20:59;;;;;;;0.20;0.20;;;;;;;13.41;68.08;99970.00;5034911;28;20033;-69
2023/04/13 09:23:24;;;;;;;0.30;0.30;;;;;;;13.07;66.98;99980.38;5053372;28;20547;-71
2023/04/13 09:26:03;;;;;;;0.20;0.20;;;;;;;13.92;66.04;99984.44;5053254;28;20017;-67
2023/04/13 09:28:29;;;;;;;0.30;0.30;;;;;;;14.35;65.40;99986.66;5053602;28;20024;-69
2023/04/13 09:31:04;;;;;;;0.20;0.20;;;;;;;13.79;65.88;99991.16;5053287;28;20604;-69
2023/04/13 09:33:34;;;;;;;0.22;0.22;;;;;;;14.46;64.35;99992.88;5035322;28;20037;-67
2023/04/13 09:36:09;;;;;;;0.20;0.20;;;;;;;14.40;63.12;99986.66;5053055;28;20123;-68
2023/04/13 09:38:34;;;;;;;0.30;0.30;;;;;;;14.29;63.82;99992.34;5052788;28;20109;-67
2023/04/13 09:41:00;;;;;;;0.30;0.30;;;;;;;14.52;63.59;100002.63;5052851;28;20552;-69
2023/04/13 09:43:34;;;;;;;0.30;0.30;;;;;;;14.85;63.77;100005.56;5053699;28;20040;-71
2023/04/13 09:46:00;;;;;;;0.20;0.20;;;;;;;15.07;61.67;100016.06;5043077;28;20025;-68
2023/04/13 09:48:25;;;;;;;0.30;0.30;;;;;;;14.63;60.49;100007.75;5072876;28;20032;-68
2023/04/13 09:51:01;;;;;;;0.30;0.30;;;;;;;14.81;61.02;100025.28;5054700;28;20103;-69
2023/04/13 09:53:37;;;;;;;0.20;0.20;;;;;;;14.19;60.23;100006.59;5052514;28;20033;-70
2023/04/13 09:56:03;;;;;;;0.20;0.20;;;;;;;14.33;60.25;100045.56;5052787;28;20025;-66
2023/04/13 09:58:29;;;;;;;0.20;0.20;;;;;;;14.57;60.32;100040.44;5053251;28;20043;-69
2023/04/13 10:00:55;;;;;;;0.20;0.20;;;;;;;15.12;58.53;100040.38;5034278;28;20037;-66
2023/04/13 10:03:22;;;;;;;0.20;0.20;;;;;;;15.14;57.58;100037.41;5052510;28;20052;-73
2023/04/13 10:05:47;;;;;;;0.30;0.30;;;;;;;14.72;58.32;100054.00;5052714;28;20084;-69
2023/04/13 10:08:13;;;;;;;0.10;0.10;;;;;;;15.18;57.71;100041.19;5052587;28;20025;-68
2023/04/13 10:10:39;;;;;;;0.20;0.20;;;;;;;14.89;59.26;100051.81;5052950;28;20032;-69
2023/04/13 10:13:17;;;;;;;0.20;0.20;;;;;;;15.42;56.94;100080.13;5052515;28;20035;-70
2023/04/13 10:16:08;;;;;;;0.20;0.20;;;;;;;15.67;54.97;100066.50;5036180;28;20041;-70
2023/04/13 10:18:36;;;;;;;0.20;0.20;;;;;;;15.01;55.95;100079.38;5034204;28;20388;-68
2023/04/13 10:21:04;;;;;;;0.20;0.20;;;;;;;15.22;56.24;100085.56;5052102;28;20087;-67
2023/04/13 10:23:33;;;;;;;0.20;0.20;;;;;;;15.44;54.21;100076.06;5052200;28;20117;-68
2023/04/13 10:26:02;;;;;;;0.20;0.20;;;;;;;15.00;55.92;100082.38;5052480;28;20037;-67
2023/04/13 10:28:28;;;;;;;0.32;0.32;;;;;;;15.69;53.87;100094.94;5052433;28;20163;-71
2023/04/13 10:30:54;;;;;;;0.20;0.20;;;;;;;15.65;54.00;100103.88;5049636;28;20029;-70
2023/04/13 10:33:19;;;;;;;0.20;0.20;;;;;;;15.43;53.83;100090.69;5052071;28;20392;-68
2023/04/13 10:35:58;;;;;;;0.20;0.20;;;;;;;16.06;53.06;100105.34;5033511;28;20033;-69
2023/04/13 10:38:24;;;;;;;0.20;0.20;;;;;;;16.57;52.17;100106.69;5031871;28;20029;-69
2023/04/13 10:40:50;;;;;;;0.30;0.30;;;;;;;15.48;51.59;100106.13;5014322;28;20032;-67
2023/04/13 10:43:31;;;;;;;0.30;0.30;;;;;;;15.42;52.28;100108.03;5033050;28;20017;-70
2023/04/13 10:46:12;;;;;;;0.20;0.20;;;;;;;15.90;51.55;100106.50;5040125;28;20107;-69
2023/04/13 10:48:40;;;;;;;;;;;;;;;15.91;51.28;100118.16;5052239;28;20059;-69
2023/04/13 10:51:06;;;;;;;0.15;0.15;;;;;;;16.01;51.37;100113.50;5046274;28;20373;-69
2023/04/13 10:53:33;;;;;;;0.20;0.20;;;;;;;16.13;50.09;100116.69;5051728;28;20037;-67
2023/04/13 10:56:01;;;;;;;0.30;0.30;;;;;;;16.13;49.81;100124.00;5052368;28;20035;-69
2023/04/13 10:58:33;;;;;;;0.20;0.20;;;;;;;16.23;50.70;100129.38;5052959;28;20021;-68
2023/04/13 11:00:59;;;;;;;0.20;0.20;;;;;;;16.35;50.18;100143.44;5053638;28;20053;-69
2023/04/13 11:03:28;;;;;;;0.20;0.20;;;;;;;16.67;50.06;100127.50;5035469;28;20485;-67
2023/04/13 11:05:58;;;;;;;0.25;0.25;;;;;;;16.46;50.27;100142.25;5052149;28;20037;-70
2023/04/13 11:08:23;;;;;;;0.20;0.20;;;;;;;16.56;49.73;100134.91;5040079;28;20036;-68
2023/04/13 11:10:56;;;;;;;0.20;0.20;;;;;;;16.81;48.74;100143.94;5042590;28;20021;-70
2023/04/13 11:13:25;;;;;;;0.17;0.17;;;;;;;16.79;47.99;100148.84;5039630;28;20017;-68
2023/04/13 11:15:58;;;;;;;0.10;0.10;;;;;;;17.19;47.08;100148.53;5044277;28;20025;-69
2023/04/13 11:18:28;;;;;;;0.20;0.20;;;;;;;15.74;48.57;100164.56;5040659;28;20489;-67
2023/04/13 11:20:53;;;;;;;0.30;0.30;;;;;;;16.16;47.08;100156.78;5042607;28;20435;-69
2023/04/13 11:23:19;;;;;;;0.20;0.20;;;;;;;15.97;48.33;100166.63;5041355;28;20120;-68
2023/04/13 11:25:53;;;;;;;0.10;0.10;;;;;;;16.10;48.52;100174.16;5043519;28;20100;-70
2023/04/13 11:28:19;;;;;;;0.20;0.20;;;;;;;16.40;48.02;100176.75;5045198;28;20055;-69
2023/04/13 11:30:55;;;;;;;0.17;0.17;;;;;;;16.01;48.02;100181.25;5042448;28;20026;-68